Airfield :
LOGIN :

Register | Disclaimer

   EN    FR    IT 

 










Legend :    VFR   Marginal VFR   IFR   Intensive IFR   Very Intensive IFR
Visi :
Ceiling :
>= 8 km
>= 3000ft
5 to 8 km
1000 to 3000 ft
1500m to 5 km
500 to 1000 ft
800 to 1500m
200 to 500 ft
< 800m
< 200 ft
Symbols :   Thunderstorms  Fog  Heavy snow  Heavy precipitations  Wind > 20 kt
SIGMETs :     Misc.  Thunderstorms  Icing  Turbulence  Mountain Waves  Volcanic Ashes






- Airport Elevation : 19 ft
- IATA code : LCY


EGLC - London City

CURRENT METAR :
  • 071850Z AUTO 24009KT 9999 FEW046/// //////TCU 14/12 Q1016

EXPIRED METARs :
  • 071820Z AUTO 25015KT 9000 -RA FEW015/// SCT022/// BKN033/// //////TCU 14/12 Q1017 RERA
  • 071750Z AUTO 22012KT 9999 BKN040/// BKN048/// //////CB 17/11 Q1016
  • 071720Z AUTO 23012KT 9999 SCT029/// BKN046/// //////CB 17/11 Q1016
  • 071650Z AUTO 23014KT 180V250 9999 SCT031 17/11 Q1016
  • 071620Z AUTO 23016KT 9999 BKN036 BKN043 18/10 Q1016

TAF AMD TAF EGLC
Valid from the 07 at 18:00 until the 07 at 21:00 UTC


071729Z 0718/0721 25010KT 9999 SCT030
TEMPO 0718/0719 23015G25KT
PROB30
TEMPO 0718/0719 4000 RA
ATIS : +44 20 7646 0224



MET'MAP, your aeronautical weather chart ! - Copyright ORBIFLY December 2007 - Disclaimer

ORBIFLY MET'MAP TEAM :

Programming & Development : Alexandra Zaïnal
Original concept : Baudouin d'Aumeries
Technical & hardware support : Manuel Goepfert
Assistance : Marc-Olivier Méhu




SOURCES & CREDITS :

   NOAA